ADDS TAF Board (Experimental) INFO Settings
IDs: Format: Expanded Condensed

KBOS - Boston/Logan Intl, MA, US

Issued at 2320 UTC 26 May 2016
Updated at: 0017 UTC 27 May 2016
Time2354Z 27/01Z 27/02Z 27/03Z 27/04Z 27/05Z 27/06Z 27/07Z 27/08Z 27/09Z 27/10Z 27/11Z 27/12Z 27/13Z
Type OBS PRVL PRVL PRVL PRVL PRVL PRVL PRVL PRVL PRVL PRVL PRVL PRVL PRVL
VIS 10 >6 >6 >6 >6 >6 >6 >6 >6 >6 >6 >6 >6 >6
CIG 280 150 150 150 150 150 150 150 150 110 110 110 110 --
Cover OVC BKN BKN BKN BKN BKN BKN BKN BKN BKN BKN BKN BKN SCT
FltCat VFR VFR VFR VFR VFR VFR VFR VFR VFR VFR VFR VFR VFR VFR
WX -- -- -- -- -- -- -- -- -- -- -- -- -- --
WDir 60 90 90 90 90 90 90 90 90 170 170 170 170 180
WSpd 6 8 8 8 8 8 8 8 8 6 6 6 6 6
WGst -- -- -- -- -- -- -- -- -- -- -- -- -- --
R04/22
XWnd -4 -8 -8 -8 -8 -8 -8 -8 -8 -3 -3 -3 -3 -2
HWnd 5 3 3 3 3 3 3 3 3 -5 -5 -5 -5 -6
R09/27
XWnd 2 -2 -2 -2 -2 -2 -2 -2 -2 -6 -6 -6 -6 -6
HWnd 6 8 8 8 8 8 8 8 8 -0 -0 -0 -0 -1
R14/32
XWnd 5 5 5 5 5 5 5 5 5 -4 -4 -4 -4 -5
HWnd 3 7 7 7 7 7 7 7 7 4 4 4 4 3
R15/33
XWnd 6 6 6 6 6 6 6 6 6 -3 -3 -3 -3 -4
HWnd 2 6 6 6 6 6 6 6 6 5 5 5 5 4

NOTE: TEMPO conditions in [brackets]. Keep in mind TEMPO conditions might be better (lower impact) than prevailing conditions.

Raw TAF
KBOS 262320Z 2700/2806 09008KT P6SM BKN150
  FM270900 17006KT P6SM BKN110
  FM271300 18006KT P6SM SCT100
  FM271800 15010G18KT P6SM SCT080
  FM272100 19010G22KT P6SM SCT250
  FM280400 23009KT P6SM SCT100


Raw METAR
KBOS 262354Z 06006KT 10SM FEW045 SCT180 OVC280 16/13 A3005 RMK AO2 SLP176 T01610128 10228 20161 53002
KBOS 262254Z 06010KT 10SM FEW045 SCT180 OVC280 17/13 A3005 RMK AO2 SLP175 T01720133
KBOS 262154Z 07009KT 10SM FEW045 SCT200 OVC320 18/13 A3005 RMK AO2 SLP175 T01780133

METAR Board
Radar Display
Forecast Discussion

TAF Board Legend

Potential Impact
Threat None Slight Moderate High
Visibility (sm) ≥5.1 5.1>X≥3 3>X≥1 <1
Ceiling (100 ft) ≥30.1 30.1>X≥10 10>X≥5 <5
Wind Speed (kt) <10 10≤X<20 20≤X<30 ≥30
Wind Gust (kt) <15 15≤X<25 25≤X<35 ≥35
Weather No Wx Reported VCTS,-TS,-FZRA,SN TS,FZRA +TS,+FZRA,+SN